»·PEaware :: EJA503 KTUS-KWYS

EJA503 :: KTUS-KWYS

FLIGHT INFORMATION

Flight Status: Arrived
Operator:
Netjets Aviation
More flights by this operator :: More flights under this callsign
Pilot: Ian G. (41107)
Aircraft: Cessna 525C Citation CJ4
(C25C)
More flights by this aircraft type
Origin: KTUS Tucson Intl
United States
Destination: KWYS Yellowstone
United States
More flights between these airports :: More routes between these airports
Route: TUS8 PXR J11 FFU J9 DBS LO
File this flight plan on PilotEdge
Remarks: RMK / SIMBRIEF
Altitude:
(Current/Filed)
43,000ft
Speed:
(Current/Filed)
423kts
Departed: 18-Jul-23 09:18 AM
Arrived: 18-Jul-23 11:22 AM
Distance/Time
Traveled:
754nm/2:04
Distance/Time
To Go:
Arrived

Flight Plot

Page will automatically refresh every two minutes.

Flight plan parsing failed; only flown route is shown


Map Options




Map Legend


Flown Route
Filed Route
Departure Airport
Arrival Airport
Navaid (VOR, NDB)
Fix

Horizontal Profiles

Position Reports

Time Latitude Longitude Heading Altitude Ground
Speed
18-Jul-23 09:09 32.125689 -110.945303 137 2568ft 0kts
18-Jul-23 09:10 32.125689 -110.945303 137 2568ft 0kts
18-Jul-23 09:11 32.125689 -110.945303 137 2568ft 0kts
18-Jul-23 09:12 32.125689 -110.945303 137 2568ft 0kts
18-Jul-23 09:13 32.125689 -110.945303 137 2568ft 0kts
18-Jul-23 09:14 32.125729 -110.945105 12 2568ft 3kts
18-Jul-23 09:15 32.124950 -110.947179 165 2565ft 11kts
18-Jul-23 09:16 32.122658 -110.947121 136 2567ft 30kts
18-Jul-23 09:17 32.092560 -110.911203 134 4312ft 213kts
18-Jul-23 09:18 32.039997 -110.877839 208 7668ft 249kts
18-Jul-23 09:19 32.045417 -110.947025 326 11334ft 269kts
18-Jul-23 09:20 32.111482 -110.994555 327 14557ft 286kts
18-Jul-23 09:21 32.180918 -111.044977 328 17540ft 300kts
18-Jul-23 09:22 32.253444 -111.097758 328 20209ft 312kts
18-Jul-23 09:23 32.328893 -111.152731 327 22743ft 324kts
18-Jul-23 09:24 32.406715 -111.209570 327 24953ft 335kts
18-Jul-23 09:25 32.487338 -111.268550 327 27019ft 345kts
18-Jul-23 09:26 32.570364 -111.329455 327 29125ft 352kts
18-Jul-23 09:27 32.652674 -111.389942 327 31306ft 347kts
18-Jul-23 09:28 32.734816 -111.450450 327 33272ft 345kts
18-Jul-23 09:29 32.815992 -111.510370 327 35086ft 342kts
18-Jul-23 09:30 32.896455 -111.569887 327 36872ft 339kts
18-Jul-23 09:31 32.976186 -111.629003 327 38574ft 337kts
18-Jul-23 09:32 33.055353 -111.687837 327 40010ft 334kts
18-Jul-23 09:33 33.134083 -111.746447 327 41416ft 331kts
18-Jul-23 09:34 33.211904 -111.804517 327 42802ft 330kts
18-Jul-23 09:35 33.293275 -111.865379 327 43009ft 363kts
18-Jul-23 09:36 33.382734 -111.932414 327 42984ft 394kts
18-Jul-23 09:37 33.484257 -111.990418 341 42979ft 418kts
18-Jul-23 09:38 33.596541 -112.034991 341 43015ft 429kts
18-Jul-23 09:39 33.710541 -112.080342 341 43016ft 432kts
18-Jul-23 09:40 33.824832 -112.125919 340 43001ft 434kts
18-Jul-23 09:41 33.939828 -112.171903 340 42975ft 436kts
18-Jul-23 09:42 34.055113 -112.218147 340 42965ft 438kts
18-Jul-23 09:43 34.171257 -112.264868 340 42981ft 440kts
18-Jul-23 09:44 34.287345 -112.311706 340 42991ft 441kts
18-Jul-23 09:45 34.403808 -112.358814 340 43116ft 441kts
18-Jul-23 09:46 34.520144 -112.406012 340 43250ft 442kts
18-Jul-23 09:47 34.636627 -112.453428 340 43302ft 441kts
18-Jul-23 09:48 34.757353 -112.477220 2 43277ft 444kts
18-Jul-23 09:49 34.880825 -112.470207 1 43150ft 444kts
18-Jul-23 09:50 35.004430 -112.463124 1 43026ft 445kts
18-Jul-23 09:51 35.127764 -112.456019 1 43151ft 445kts
18-Jul-23 09:52 35.251509 -112.448875 1 43248ft 445kts
18-Jul-23 09:53 35.375255 -112.441714 1 43253ft 445kts
18-Jul-23 09:54 35.499180 -112.434535 1 43166ft 445kts
18-Jul-23 09:55 35.622895 -112.427347 1 43055ft 445kts
18-Jul-23 09:56 35.746875 -112.420111 1 43084ft 445kts
18-Jul-23 09:57 35.870492 -112.412900 0 43224ft 445kts
18-Jul-23 09:58 35.994136 -112.405638 0 43249ft 445kts
18-Jul-23 09:59 36.117922 -112.398365 0 43180ft 446kts
18-Jul-23 10:00 36.241886 -112.391035 0 43061ft 446kts
18-Jul-23 10:01 36.366014 -112.383684 0 43045ft 447kts
18-Jul-23 10:02 36.490337 -112.376293 0 43065ft 447kts
18-Jul-23 10:04 36.614804 -112.368876 0 43044ft 447kts
18-Jul-23 10:05 36.738810 -112.361468 0 43083ft 446kts
18-Jul-23 10:06 36.862608 -112.354032 0 43180ft 445kts
18-Jul-23 10:07 36.986192 -112.346609 0 43238ft 445kts
18-Jul-23 10:08 37.110132 -112.339148 0 43197ft 445kts
18-Jul-23 10:09 37.233586 -112.331672 359 43101ft 445kts
18-Jul-23 10:10 37.357384 -112.324164 359 43015ft 445kts
18-Jul-23 10:11 37.481016 -112.316629 359 43188ft 445kts
18-Jul-23 10:12 37.605035 -112.309055 359 43344ft 446kts
18-Jul-23 10:13 37.728621 -112.298469 3 43414ft 447kts
18-Jul-23 10:14 37.851990 -112.281783 2 43323ft 447kts
18-Jul-23 10:15 37.975858 -112.264898 2 43163ft 449kts
18-Jul-23 10:16 38.100262 -112.247878 2 43059ft 449kts
18-Jul-23 10:17 38.224658 -112.230818 2 43065ft 450kts
18-Jul-23 10:18 38.349326 -112.213634 2 43064ft 450kts
18-Jul-23 10:19 38.473635 -112.196451 2 43058ft 450kts
18-Jul-23 10:20 38.597835 -112.179223 2 43048ft 450kts
18-Jul-23 10:21 38.722708 -112.161845 2 43032ft 450kts
18-Jul-23 10:22 38.846986 -112.144484 2 43011ft 450kts
18-Jul-23 10:23 38.971596 -112.127024 1 43005ft 451kts
18-Jul-23 10:24 39.096423 -112.109490 1 42975ft 453kts
18-Jul-23 10:25 39.221708 -112.091770 1 42993ft 453kts
18-Jul-23 10:26 39.347193 -112.074000 1 43003ft 453kts
18-Jul-23 10:27 39.472409 -112.056193 1 42993ft 453kts
18-Jul-23 10:28 39.597587 -112.038333 1 42993ft 453kts
18-Jul-23 10:29 39.722947 -112.020386 1 43000ft 452kts
18-Jul-23 10:30 39.848043 -112.002387 1 43003ft 452kts
18-Jul-23 10:31 39.973085 -111.984361 0 43053ft 452kts
18-Jul-23 10:32 40.098156 -111.966248 0 43118ft 452kts
18-Jul-23 10:32 40.202478 -111.951074 0 43154ft 452kts
18-Jul-23 10:33 40.327246 -111.944318 350 43136ft 445kts
18-Jul-23 10:35 40.471446 -111.954603 350 43044ft 445kts
18-Jul-23 10:36 40.593323 -111.963343 350 43100ft 445kts
18-Jul-23 10:37 40.716884 -111.972248 350 43161ft 445kts
18-Jul-23 10:37 40.819694 -111.979691 350 43166ft 444kts
18-Jul-23 10:38 40.943148 -111.988051 350 43119ft 444kts
18-Jul-23 10:39 41.066852 -111.996389 350 43185ft 444kts
18-Jul-23 10:41 41.211495 -111.993258 2 43163ft 454kts
18-Jul-23 10:42 41.336214 -111.965512 3 43127ft 455kts
18-Jul-23 10:42 41.440517 -111.942149 3 43131ft 455kts
18-Jul-23 10:43 41.564791 -111.914086 3 43157ft 454kts
18-Jul-23 10:44 41.687128 -111.886266 2 42619ft 436kts
18-Jul-23 10:45 41.808079 -111.858775 1 40814ft 446kts
18-Jul-23 10:46 41.931738 -111.830476 0 39145ft 456kts
18-Jul-23 10:47 42.057287 -111.801651 0 37273ft 459kts
18-Jul-23 10:48 42.183829 -111.772513 0 35491ft 463kts
18-Jul-23 10:49 42.310901 -111.743076 0 33705ft 463kts
18-Jul-23 10:50 42.437766 -111.713574 2 31756ft 461kts
18-Jul-23 10:51 42.564570 -111.683938 3 29915ft 462kts
18-Jul-23 10:52 42.690508 -111.654443 3 27851ft 455kts
18-Jul-23 10:53 42.814531 -111.625248 3 25923ft 450kts
18-Jul-23 10:54 42.937509 -111.596232 4 24170ft 447kts
18-Jul-23 10:55 43.056821 -111.567925 4 24048ft 433kts
18-Jul-23 10:56 43.174995 -111.539759 4 24050ft 431kts
18-Jul-23 10:57 43.293407 -111.511479 3 24048ft 431kts
18-Jul-23 10:58 43.410226 -111.483303 4 23605ft 405kts
18-Jul-23 10:59 43.513547 -111.458574 3 22030ft 368kts
18-Jul-23 11:00 43.617489 -111.433416 4 20648ft 391kts
18-Jul-23 11:01 43.725683 -111.407099 4 20163ft 385kts
18-Jul-23 11:02 43.829455 -111.381887 4 20160ft 374kts
18-Jul-23 11:03 43.932611 -111.356740 4 20120ft 389kts
18-Jul-23 11:04 44.042348 -111.329755 4 20051ft 407kts
18-Jul-23 11:05 44.148509 -111.303570 4 19922ft 363kts
18-Jul-23 11:06 44.239588 -111.281010 3 18375ft 298kts
18-Jul-23 11:07 44.313672 -111.262651 2 16698ft 244kts
18-Jul-23 11:08 44.379258 -111.246476 2 15342ft 237kts
18-Jul-23 11:09 44.443688 -111.230439 2 14107ft 232kts
18-Jul-23 11:10 44.506322 -111.214846 4 12793ft 228kts
18-Jul-23 11:11 44.563272 -111.219004 290 11961ft 194kts
18-Jul-23 11:12 44.526533 -111.240457 165 11944ft 225kts
18-Jul-23 11:13 44.469575 -111.194763 167 11899ft 239kts
18-Jul-23 11:14 44.428221 -111.237810 274 11748ft 217kts
18-Jul-23 11:15 44.476662 -111.268158 36 10027ft 214kts
18-Jul-23 11:16 44.521858 -111.232112 23 9908ft 184kts
18-Jul-23 11:17 44.568682 -111.199886 21 8963ft 154kts
18-Jul-23 11:18 44.604859 -111.175257 19 8260ft 133kts
18-Jul-23 11:19 44.638350 -111.151880 23 7688ft 132kts
18-Jul-23 11:20 44.669824 -111.130592 24 6892ft 118kts
18-Jul-23 11:21 44.691598 -111.115116 68 6654ft 25kts
18-Jul-23 11:22 44.687285 -111.114919 208 6652ft 8kts
18-Jul-23 11:23 44.687147 -111.115022 207 6653ft 0kts
18-Jul-23 11:24 44.687147 -111.115022 207 6651ft 0kts
18-Jul-23 11:25 44.687147 -111.115022 207 6651ft 0kts
18-Jul-23 11:26 44.687147 -111.115022 207 6651ft 0kts
18-Jul-23 11:27 44.687147 -111.115022 207 6651ft 0kts

Navigation Log

Ident Type
Flight plan parsing failed, navigation log unavailable